Terminal Aerodrome Forecast
Issued by NWS

Home | Current Version | Previous Version | Text Only | Print | Product List | Glossary On
Versions: 1 2 3 4 5 6 7 8 9 10 11 12 13 14 15 16 17 18 19
000
FTAK31 PAJN 232300
TAFAKT
TAF
PAKT 232326Z 2400/2424 32010KT P6SM SCT150
     FM240400 34006KT P6SM -RA BKN050 OVC100
     FM240900 VRB05KT P6SM -RA BKN040 OVC080
     FM241300 33006KT 6SM -RA BR BKN025 OVC050
     FM241800 33008KT P6SM VCSH SCT025 OVC050
      AMD LTD TO CLD VIS AND WIND 2406/2415=

USA.gov is the U.S. government's official web portal to all federal, state and local government web resources and services.